Time,TemperatureF,DewpointF,PressureIn,WindDirection,WindDirectionDegrees,WindSpeedMPH,WindSpeedGustMPH,Humidity,HourlyPrecipIn,Conditions,Clouds,dailyrainin,SoftwareType,DateUTC
2013-11-19 00:21:00,35.0,26.0,-100.00,ESE,120,7.0,9.0,71,0.00,,,-99.99,,2013-11-19 06:21:00,
2013-11-19 01:12:00,34.0,26.0,-100.00,SE,130,8.0,10.0,73,0.00,,,-99.99,,2013-11-19 07:12:00,
2013-11-19 01:22:00,34.0,26.0,-100.00,SE,130,9.0,10.0,73,0.00,,,-99.99,,2013-11-19 07:22:00,
2013-11-19 02:22:00,33.0,26.0,-100.00,SE,125,8.0,10.0,75,0.00,,,-99.99,,2013-11-19 08:22:00,
2013-11-19 02:42:00,34.0,27.0,-100.00,SE,130,9.0,11.0,75,0.00,,,-99.99,,2013-11-19 08:42:00,
2013-11-19 03:21:00,33.0,26.0,-100.00,SE,130,8.0,11.0,75,0.00,,,-99.99,,2013-11-19 09:21:00,
2013-11-19 04:12:00,33.0,26.0,-100.00,SE,130,9.0,10.0,77,0.00,,,-99.99,,2013-11-19 10:12:00,
2013-11-19 04:23:00,33.0,26.0,-100.00,SE,135,9.0,10.0,77,0.00,,,-99.99,,2013-11-19 10:23:00,
2013-11-19 04:43:00,33.0,26.0,-100.00,SE,130,9.0,11.0,78,0.00,,,-99.99,,2013-11-19 10:43:00,
2013-11-19 05:12:00,33.0,26.0,-100.00,SE,130,9.0,11.0,78,0.00,,,-99.99,,2013-11-19 11:12:00,
2013-11-19 05:22:00,32.0,26.0,-100.00,SE,135,9.0,11.0,78,0.00,,,-99.99,,2013-11-19 11:22:00,
2013-11-19 06:21:00,33.0,26.0,-100.00,SE,125,9.0,12.0,78,0.00,,,-99.99,,2013-11-19 12:21:00,
2013-11-19 07:11:00,32.0,26.0,-100.00,SE,130,9.0,11.0,78,0.00,,,-99.99,,2013-11-19 13:11:00,
2013-11-19 08:42:00,36.0,28.0,-100.00,SE,135,10.0,13.0,70,0.00,,,-99.99,,2013-11-19 14:42:00,
2013-11-19 09:21:00,40.0,28.0,-100.00,SE,135,9.0,14.0,61,0.00,,,-99.99,,2013-11-19 15:21:00,
2013-11-19 12:22:00,55.0,27.0,-100.00,SSE,150,9.0,22.0,34,0.00,,,-99.99,,2013-11-19 18:22:00,
2013-11-19 12:42:00,55.0,27.0,-100.00,SSE,150,16.0,22.0,32,0.00,,,-99.99,,2013-11-19 18:42:00,
2013-11-19 15:11:00,56.0,24.0,-100.00,SSE,155,12.0,24.0,28,0.00,,,-99.99,,2013-11-19 21:11:00,
2013-11-19 15:21:00,56.0,24.0,-100.00,SSE,150,13.0,23.0,28,0.00,,,-99.99,,2013-11-19 21:21:00,
2013-11-19 15:43:00,55.0,23.0,-100.00,SSE,160,13.0,24.0,28,0.00,,,-99.99,,2013-11-19 21:43:00,
2013-11-19 17:43:00,49.0,22.0,-100.00,SSE,160,14.0,24.0,34,0.00,,,-99.99,,2013-11-19 23:43:00,
2013-11-19 19:21:00,47.0,22.0,-100.00,SSE,155,12.0,20.0,36,0.00,,,-99.99,,2013-11-20 01:21:00,
2013-11-19 19:42:00,48.0,22.0,-100.00,SSE,150,17.0,25.0,36,0.00,,,-99.99,,2013-11-20 01:42:00,
2013-11-19 20:42:00,48.0,22.0,-100.00,SSE,150,16.0,24.0,35,0.00,,,-99.99,,2013-11-20 02:42:00,
2013-11-19 21:21:00,48.0,22.0,-100.00,SE,145,17.0,24.0,35,0.00,,,-99.99,,2013-11-20 03:21:00,
2013-11-19 22:23:00,48.0,22.0,-100.00,SE,145,12.0,27.0,35,0.00,,,-99.99,,2013-11-20 04:23:00,
2013-11-19 22:43:00,47.0,21.0,-100.00,SE,140,17.0,26.0,35,0.00,,,-99.99,,2013-11-20 04:43:00,
2013-11-19 23:22:00,48.0,21.0,-100.00,SE,140,14.0,23.0,34,0.00,,,-99.99,,2013-11-20 05:22:00,
2013-11-19 23:43:00,48.0,21.0,-100.00,South,170,12.0,27.0,34,0.00,,,-99.99,,2013-11-20 05:43:00,